sensor_id;sensor_type;location;lat;lon;timestamp;P1;durP1;ratioP1;P2;durP2;ratioP2
18711;SDS011;9485;49.386;8.674;2022-11-20T00:04:14;5.27;;;3.77;;
18711;SDS011;9485;49.386;8.674;2022-11-20T00:09:35;3.87;;;3.47;;
18711;SDS011;9485;49.386;8.674;2022-11-20T00:14:56;3.53;;;3.23;;
18711;SDS011;9485;49.386;8.674;2022-11-20T00:20:17;3.87;;;3.20;;
18711;SDS011;9485;49.386;8.674;2022-11-20T00:25:38;3.37;;;2.83;;
18711;SDS011;9485;49.386;8.674;2022-11-20T00:31:02;2.87;;;2.67;;
18711;SDS011;9485;49.386;8.674;2022-11-20T00:36:27;3.33;;;2.87;;
18711;SDS011;9485;49.386;8.674;2022-11-20T00:41:51;5.63;;;3.87;;
18711;SDS011;9485;49.386;8.674;2022-11-20T00:47:12;3.77;;;3.27;;
18711;SDS011;9485;49.386;8.674;2022-11-20T00:52:33;3.47;;;3.10;;
18711;SDS011;9485;49.386;8.674;2022-11-20T00:57:54;3.10;;;2.80;;
18711;SDS011;9485;49.386;8.674;2022-11-20T01:03:14;3.53;;;2.97;;
18711;SDS011;9485;49.386;8.674;2022-11-20T01:08:37;2.93;;;2.67;;
18711;SDS011;9485;49.386;8.674;2022-11-20T01:13:58;3.00;;;2.70;;
18711;SDS011;9485;49.386;8.674;2022-11-20T01:19:21;3.30;;;3.00;;
18711;SDS011;9485;49.386;8.674;2022-11-20T01:24:44;3.87;;;2.80;;
18711;SDS011;9485;49.386;8.674;2022-11-20T01:30:05;3.67;;;3.27;;
18711;SDS011;9485;49.386;8.674;2022-11-20T01:35:27;4.10;;;3.57;;
18711;SDS011;9485;49.386;8.674;2022-11-20T01:40:54;4.70;;;3.83;;
18711;SDS011;9485;49.386;8.674;2022-11-20T01:46:15;5.17;;;4.03;;
18711;SDS011;9485;49.386;8.674;2022-11-20T01:51:38;4.63;;;3.90;;
18711;SDS011;9485;49.386;8.674;2022-11-20T01:57:05;3.50;;;3.20;;
18711;SDS011;9485;49.386;8.674;2022-11-20T02:02:30;3.97;;;3.57;;
18711;SDS011;9485;49.386;8.674;2022-11-20T02:07:51;3.17;;;2.87;;
18711;SDS011;9485;49.386;8.674;2022-11-20T02:13:16;3.70;;;3.10;;
18711;SDS011;9485;49.386;8.674;2022-11-20T02:18:57;3.53;;;3.07;;
18711;SDS011;9485;49.386;8.674;2022-11-20T02:24:22;3.40;;;3.10;;
18711;SDS011;9485;49.386;8.674;2022-11-20T02:29:44;4.30;;;3.47;;
18711;SDS011;9485;49.386;8.674;2022-11-20T02:41:02;4.43;;;3.80;;
18711;SDS011;9485;49.386;8.674;2022-11-20T02:46:23;3.93;;;3.60;;
18711;SDS011;9485;49.386;8.674;2022-11-20T02:51:44;4.47;;;3.47;;
18711;SDS011;9485;49.386;8.674;2022-11-20T02:57:06;5.70;;;3.93;;
18711;SDS011;9485;49.386;8.674;2022-11-20T03:02:29;6.03;;;4.07;;
18711;SDS011;9485;49.386;8.674;2022-11-20T03:07:49;5.17;;;4.40;;
18711;SDS011;9485;49.386;8.674;2022-11-20T03:13:11;6.33;;;4.93;;
18711;SDS011;9485;49.386;8.674;2022-11-20T03:18:32;7.27;;;5.17;;
18711;SDS011;9485;49.386;8.674;2022-11-20T03:23:52;8.17;;;5.97;;
18711;SDS011;9485;49.386;8.674;2022-11-20T03:29:15;9.70;;;6.00;;
18711;SDS011;9485;49.386;8.674;2022-11-20T03:34:36;9.47;;;6.77;;
18711;SDS011;9485;49.386;8.674;2022-11-20T03:39:57;7.87;;;6.27;;
18711;SDS011;9485;49.386;8.674;2022-11-20T03:45:19;9.03;;;6.07;;
18711;SDS011;9485;49.386;8.674;2022-11-20T03:50:39;8.37;;;6.60;;
18711;SDS011;9485;49.386;8.674;2022-11-20T03:56:00;7.33;;;5.93;;
18711;SDS011;9485;49.386;8.674;2022-11-20T04:01:22;7.90;;;6.10;;
18711;SDS011;9485;49.386;8.674;2022-11-20T04:06:44;6.27;;;5.60;;
18711;SDS011;9485;49.386;8.674;2022-11-20T04:12:04;7.93;;;6.50;;
18711;SDS011;9485;49.386;8.674;2022-11-20T04:17:27;9.03;;;6.77;;
18711;SDS011;9485;49.386;8.674;2022-11-20T04:22:47;8.03;;;5.93;;
18711;SDS011;9485;49.386;8.674;2022-11-20T04:28:08;7.00;;;5.77;;
18711;SDS011;9485;49.386;8.674;2022-11-20T04:33:31;6.33;;;5.13;;
18711;SDS011;9485;49.386;8.674;2022-11-20T04:38:52;6.70;;;5.57;;
18711;SDS011;9485;49.386;8.674;2022-11-20T04:44:14;5.83;;;5.03;;
18711;SDS011;9485;49.386;8.674;2022-11-20T04:49:36;6.87;;;5.87;;
18711;SDS011;9485;49.386;8.674;2022-11-20T04:54:57;8.57;;;6.37;;
18711;SDS011;9485;49.386;8.674;2022-11-20T05:00:17;7.67;;;5.73;;
18711;SDS011;9485;49.386;8.674;2022-11-20T05:05:44;7.70;;;6.13;;
18711;SDS011;9485;49.386;8.674;2022-11-20T05:11:05;7.63;;;6.00;;
18711;SDS011;9485;49.386;8.674;2022-11-20T05:16:28;7.03;;;5.60;;
18711;SDS011;9485;49.386;8.674;2022-11-20T05:21:49;6.37;;;5.17;;
18711;SDS011;9485;49.386;8.674;2022-11-20T05:27:10;6.33;;;5.13;;
18711;SDS011;9485;49.386;8.674;2022-11-20T05:32:31;7.50;;;5.70;;
18711;SDS011;9485;49.386;8.674;2022-11-20T05:37:52;7.50;;;6.17;;
18711;SDS011;9485;49.386;8.674;2022-11-20T05:43:13;8.80;;;6.13;;
18711;SDS011;9485;49.386;8.674;2022-11-20T05:48:34;8.40;;;6.13;;
18711;SDS011;9485;49.386;8.674;2022-11-20T05:53:57;7.70;;;6.27;;
18711;SDS011;9485;49.386;8.674;2022-11-20T05:59:17;10.53;;;7.53;;
18711;SDS011;9485;49.386;8.674;2022-11-20T06:04:38;7.83;;;6.27;;
18711;SDS011;9485;49.386;8.674;2022-11-20T06:09:59;7.97;;;6.10;;
18711;SDS011;9485;49.386;8.674;2022-11-20T06:15:20;6.63;;;5.67;;
18711;SDS011;9485;49.386;8.674;2022-11-20T06:20:41;8.57;;;5.67;;
18711;SDS011;9485;49.386;8.674;2022-11-20T06:26:03;9.20;;;6.93;;
18711;SDS011;9485;49.386;8.674;2022-11-20T06:31:26;6.07;;;5.33;;
18711;SDS011;9485;49.386;8.674;2022-11-20T06:36:47;6.43;;;5.63;;
18711;SDS011;9485;49.386;8.674;2022-11-20T06:42:09;6.83;;;5.20;;
18711;SDS011;9485;49.386;8.674;2022-11-20T06:47:31;7.23;;;5.87;;
18711;SDS011;9485;49.386;8.674;2022-11-20T06:52:52;8.23;;;5.70;;
18711;SDS011;9485;49.386;8.674;2022-11-20T06:58:13;8.80;;;5.60;;
18711;SDS011;9485;49.386;8.674;2022-11-20T07:03:35;6.10;;;5.27;;
18711;SDS011;9485;49.386;8.674;2022-11-20T07:08:57;6.53;;;5.03;;
18711;SDS011;9485;49.386;8.674;2022-11-20T07:14:19;6.73;;;4.70;;
18711;SDS011;9485;49.386;8.674;2022-11-20T07:19:39;5.53;;;4.57;;
18711;SDS011;9485;49.386;8.674;2022-11-20T07:25:01;5.27;;;4.57;;
18711;SDS011;9485;49.386;8.674;2022-11-20T07:30:24;5.03;;;4.53;;
18711;SDS011;9485;49.386;8.674;2022-11-20T07:35:47;5.90;;;4.77;;
18711;SDS011;9485;49.386;8.674;2022-11-20T07:41:07;6.10;;;5.20;;
18711;SDS011;9485;49.386;8.674;2022-11-20T07:46:29;5.60;;;4.70;;
18711;SDS011;9485;49.386;8.674;2022-11-20T07:51:49;5.63;;;4.83;;
18711;SDS011;9485;49.386;8.674;2022-11-20T07:57:12;4.77;;;4.23;;
18711;SDS011;9485;49.386;8.674;2022-11-20T08:02:36;5.57;;;4.33;;
18711;SDS011;9485;49.386;8.674;2022-11-20T08:07:58;4.53;;;4.00;;
18711;SDS011;9485;49.386;8.674;2022-11-20T08:13:18;4.50;;;4.07;;
18711;SDS011;9485;49.386;8.674;2022-11-20T08:18:58;4.73;;;3.93;;
18711;SDS011;9485;49.386;8.674;2022-11-20T08:28:45;4.10;;;3.57;;
18711;SDS011;9485;49.386;8.674;2022-11-20T08:34:06;4.50;;;4.03;;
18711;SDS011;9485;49.386;8.674;2022-11-20T08:39:26;5.17;;;4.20;;
18711;SDS011;9485;49.386;8.674;2022-11-20T08:44:48;5.10;;;3.57;;
18711;SDS011;9485;49.386;8.674;2022-11-20T08:50:09;4.53;;;3.77;;
18711;SDS011;9485;49.386;8.674;2022-11-20T08:55:30;4.40;;;3.70;;
18711;SDS011;9485;49.386;8.674;2022-11-20T09:00:52;3.90;;;3.47;;
18711;SDS011;9485;49.386;8.674;2022-11-20T09:06:13;3.27;;;2.97;;
18711;SDS011;9485;49.386;8.674;2022-11-20T09:11:34;4.10;;;3.47;;
18711;SDS011;9485;49.386;8.674;2022-11-20T09:16:56;3.73;;;3.10;;
18711;SDS011;9485;49.386;8.674;2022-11-20T09:22:17;3.20;;;2.90;;
18711;SDS011;9485;49.386;8.674;2022-11-20T09:27:37;4.17;;;3.40;;
18711;SDS011;9485;49.386;8.674;2022-11-20T09:33:01;4.17;;;3.30;;
18711;SDS011;9485;49.386;8.674;2022-11-20T09:38:25;3.17;;;2.87;;
18711;SDS011;9485;49.386;8.674;2022-11-20T09:43:46;3.50;;;3.20;;
18711;SDS011;9485;49.386;8.674;2022-11-20T09:49:23;4.07;;;3.73;;
18711;SDS011;9485;49.386;8.674;2022-11-20T09:54:56;3.63;;;3.30;;
18711;SDS011;9485;49.386;8.674;2022-11-20T10:00:18;3.83;;;3.53;;
18711;SDS011;9485;49.386;8.674;2022-11-20T10:05:42;3.43;;;3.00;;
18711;SDS011;9485;49.386;8.674;2022-11-20T10:11:09;4.27;;;3.23;;
18711;SDS011;9485;49.386;8.674;2022-11-20T10:16:41;4.43;;;3.40;;
18711;SDS011;9485;49.386;8.674;2022-11-20T10:22:18;5.20;;;3.73;;
18711;SDS011;9485;49.386;8.674;2022-11-20T10:28:15;4.63;;;3.70;;
18711;SDS011;9485;49.386;8.674;2022-11-20T10:33:45;4.80;;;4.07;;
18711;SDS011;9485;49.386;8.674;2022-11-20T10:39:16;3.97;;;3.57;;
18711;SDS011;9485;49.386;8.674;2022-11-20T10:44:47;5.00;;;3.80;;
18711;SDS011;9485;49.386;8.674;2022-11-20T10:50:21;4.73;;;4.23;;
18711;SDS011;9485;49.386;8.674;2022-11-20T10:55:45;6.97;;;4.30;;
18711;SDS011;9485;49.386;8.674;2022-11-20T11:01:14;5.20;;;3.93;;
18711;SDS011;9485;49.386;8.674;2022-11-20T11:06:37;4.77;;;3.93;;
18711;SDS011;9485;49.386;8.674;2022-11-20T11:12:08;4.33;;;3.53;;
18711;SDS011;9485;49.386;8.674;2022-11-20T11:17:31;3.63;;;2.83;;
18711;SDS011;9485;49.386;8.674;2022-11-20T11:22:55;2.57;;;2.37;;
18711;SDS011;9485;49.386;8.674;2022-11-20T11:28:20;2.63;;;2.43;;
18711;SDS011;9485;49.386;8.674;2022-11-20T11:33:45;3.37;;;2.90;;
18711;SDS011;9485;49.386;8.674;2022-11-20T11:39:08;5.50;;;2.30;;
18711;SDS011;9485;49.386;8.674;2022-11-20T11:44:36;3.03;;;2.73;;
18711;SDS011;9485;49.386;8.674;2022-11-20T11:50:23;3.17;;;2.87;;
18711;SDS011;9485;49.386;8.674;2022-11-20T11:55:49;5.10;;;4.03;;
18711;SDS011;9485;49.386;8.674;2022-11-20T12:01:20;5.10;;;4.00;;
18711;SDS011;9485;49.386;8.674;2022-11-20T12:06:53;6.00;;;4.87;;
18711;SDS011;9485;49.386;8.674;2022-11-20T12:12:24;6.73;;;4.83;;
18711;SDS011;9485;49.386;8.674;2022-11-20T12:17:55;8.00;;;6.00;;
18711;SDS011;9485;49.386;8.674;2022-11-20T12:23:17;6.53;;;5.30;;
18711;SDS011;9485;49.386;8.674;2022-11-20T12:28:52;6.27;;;5.27;;
18711;SDS011;9485;49.386;8.674;2022-11-20T12:34:32;7.63;;;5.00;;
18711;SDS011;9485;49.386;8.674;2022-11-20T12:40:12;6.03;;;4.60;;
18711;SDS011;9485;49.386;8.674;2022-11-20T12:52:02;3.60;;;2.27;;
18711;SDS011;9485;49.386;8.674;2022-11-20T12:57:47;1.87;;;1.57;;
18711;SDS011;9485;49.386;8.674;2022-11-20T13:09:09;2.93;;;1.70;;
18711;SDS011;9485;49.386;8.674;2022-11-20T13:14:35;2.90;;;1.80;;
18711;SDS011;9485;49.386;8.674;2022-11-20T13:20:04;1.73;;;1.60;;
18711;SDS011;9485;49.386;8.674;2022-11-20T13:25:35;1.63;;;1.53;;
18711;SDS011;9485;49.386;8.674;2022-11-20T13:30:58;1.93;;;1.60;;
18711;SDS011;9485;49.386;8.674;2022-11-20T13:36:20;2.60;;;1.47;;
18711;SDS011;9485;49.386;8.674;2022-11-20T13:41:53;3.20;;;1.60;;
18711;SDS011;9485;49.386;8.674;2022-11-20T13:47:19;1.60;;;1.40;;
18711;SDS011;9485;49.386;8.674;2022-11-20T13:52:44;2.03;;;1.50;;
18711;SDS011;9485;49.386;8.674;2022-11-20T13:58:24;2.10;;;1.53;;
18711;SDS011;9485;49.386;8.674;2022-11-20T14:04:06;3.70;;;1.63;;
18711;SDS011;9485;49.386;8.674;2022-11-20T14:09:29;2.17;;;1.37;;
18711;SDS011;9485;49.386;8.674;2022-11-20T14:14:53;1.50;;;1.17;;
18711;SDS011;9485;49.386;8.674;2022-11-20T14:20:14;3.80;;;1.20;;
18711;SDS011;9485;49.386;8.674;2022-11-20T14:25:37;1.10;;;1.10;;
18711;SDS011;9485;49.386;8.674;2022-11-20T14:31:04;2.23;;;1.20;;
18711;SDS011;9485;49.386;8.674;2022-11-20T14:36:40;3.43;;;1.30;;
18711;SDS011;9485;49.386;8.674;2022-11-20T14:42:11;1.50;;;1.20;;
18711;SDS011;9485;49.386;8.674;2022-11-20T14:47:37;1.27;;;1.03;;
18711;SDS011;9485;49.386;8.674;2022-11-20T14:52:59;2.17;;;1.00;;
18711;SDS011;9485;49.386;8.674;2022-11-20T14:58:21;1.83;;;1.20;;
18711;SDS011;9485;49.386;8.674;2022-11-20T15:03:45;1.30;;;1.07;;
18711;SDS011;9485;49.386;8.674;2022-11-20T15:09:12;1.63;;;1.27;;
18711;SDS011;9485;49.386;8.674;2022-11-20T15:14:35;2.20;;;2.00;;
18711;SDS011;9485;49.386;8.674;2022-11-20T15:19:58;3.17;;;1.93;;
18711;SDS011;9485;49.386;8.674;2022-11-20T15:25:20;3.53;;;2.13;;
18711;SDS011;9485;49.386;8.674;2022-11-20T15:30:43;3.47;;;2.17;;
18711;SDS011;9485;49.386;8.674;2022-11-20T15:36:05;2.27;;;1.73;;
18711;SDS011;9485;49.386;8.674;2022-11-20T15:41:26;2.30;;;2.10;;
18711;SDS011;9485;49.386;8.674;2022-11-20T15:46:46;3.77;;;2.90;;
18711;SDS011;9485;49.386;8.674;2022-11-20T15:52:08;3.73;;;2.47;;
18711;SDS011;9485;49.386;8.674;2022-11-20T15:57:30;4.90;;;2.00;;
18711;SDS011;9485;49.386;8.674;2022-11-20T16:02:51;4.93;;;1.90;;
18711;SDS011;9485;49.386;8.674;2022-11-20T16:08:12;2.83;;;1.80;;
18711;SDS011;9485;49.386;8.674;2022-11-20T16:13:33;4.63;;;2.20;;
18711;SDS011;9485;49.386;8.674;2022-11-20T16:19:12;2.30;;;1.80;;
18711;SDS011;9485;49.386;8.674;2022-11-20T16:24:35;3.50;;;2.10;;
18711;SDS011;9485;49.386;8.674;2022-11-20T16:29:56;3.60;;;2.30;;
18711;SDS011;9485;49.386;8.674;2022-11-20T16:35:17;4.10;;;2.30;;
18711;SDS011;9485;49.386;8.674;2022-11-20T16:40:38;3.27;;;2.50;;
18711;SDS011;9485;49.386;8.674;2022-11-20T16:45:59;2.93;;;2.30;;
18711;SDS011;9485;49.386;8.674;2022-11-20T16:51:24;4.07;;;2.27;;
18711;SDS011;9485;49.386;8.674;2022-11-20T16:56:47;2.60;;;2.23;;
18711;SDS011;9485;49.386;8.674;2022-11-20T17:02:09;4.17;;;2.57;;
18711;SDS011;9485;49.386;8.674;2022-11-20T17:07:30;3.17;;;2.70;;
18711;SDS011;9485;49.386;8.674;2022-11-20T17:12:52;4.83;;;3.10;;
18711;SDS011;9485;49.386;8.674;2022-11-20T17:18:13;5.27;;;3.47;;
18711;SDS011;9485;49.386;8.674;2022-11-20T17:23:34;7.30;;;3.83;;
18711;SDS011;9485;49.386;8.674;2022-11-20T17:28:58;6.50;;;4.07;;
18711;SDS011;9485;49.386;8.674;2022-11-20T17:34:21;4.37;;;2.80;;
18711;SDS011;9485;49.386;8.674;2022-11-20T17:39:42;6.47;;;3.90;;
18711;SDS011;9485;49.386;8.674;2022-11-20T17:45:05;3.97;;;2.87;;
18711;SDS011;9485;49.386;8.674;2022-11-20T17:50:26;3.93;;;2.43;;
18711;SDS011;9485;49.386;8.674;2022-11-20T17:55:53;4.00;;;2.50;;
18711;SDS011;9485;49.386;8.674;2022-11-20T18:01:33;5.30;;;3.00;;
18711;SDS011;9485;49.386;8.674;2022-11-20T18:06:54;4.40;;;3.27;;
18711;SDS011;9485;49.386;8.674;2022-11-20T18:12:14;6.50;;;3.27;;
18711;SDS011;9485;49.386;8.674;2022-11-20T18:17:36;4.43;;;2.90;;
18711;SDS011;9485;49.386;8.674;2022-11-20T18:22:57;4.23;;;3.70;;
18711;SDS011;9485;49.386;8.674;2022-11-20T18:28:17;3.90;;;3.23;;
18711;SDS011;9485;49.386;8.674;2022-11-20T18:33:39;3.83;;;2.97;;
18711;SDS011;9485;49.386;8.674;2022-11-20T18:39:00;3.63;;;2.93;;
18711;SDS011;9485;49.386;8.674;2022-11-20T18:44:22;4.97;;;3.10;;
18711;SDS011;9485;49.386;8.674;2022-11-20T18:50:04;4.17;;;2.27;;
18711;SDS011;9485;49.386;8.674;2022-11-20T18:55:27;3.40;;;1.90;;
18711;SDS011;9485;49.386;8.674;2022-11-20T19:00:48;3.57;;;2.00;;
18711;SDS011;9485;49.386;8.674;2022-11-20T19:06:12;1.70;;;1.57;;
18711;SDS011;9485;49.386;8.674;2022-11-20T19:11:34;4.57;;;2.07;;
18711;SDS011;9485;49.386;8.674;2022-11-20T19:16:55;3.73;;;2.47;;
18711;SDS011;9485;49.386;8.674;2022-11-20T19:22:17;7.47;;;4.53;;
18711;SDS011;9485;49.386;8.674;2022-11-20T19:27:39;3.10;;;2.67;;
18711;SDS011;9485;49.386;8.674;2022-11-20T19:32:59;2.40;;;1.90;;
18711;SDS011;9485;49.386;8.674;2022-11-20T19:38:21;3.13;;;1.77;;
18711;SDS011;9485;49.386;8.674;2022-11-20T19:43:42;1.77;;;1.67;;
18711;SDS011;9485;49.386;8.674;2022-11-20T19:49:07;2.07;;;1.70;;
18711;SDS011;9485;49.386;8.674;2022-11-20T19:54:32;2.20;;;2.00;;
18711;SDS011;9485;49.386;8.674;2022-11-20T19:59:52;2.87;;;1.80;;
18711;SDS011;9485;49.386;8.674;2022-11-20T20:05:13;3.13;;;1.80;;
18711;SDS011;9485;49.386;8.674;2022-11-20T20:10:35;1.63;;;1.40;;
18711;SDS011;9485;49.386;8.674;2022-11-20T20:15:56;4.33;;;1.53;;
18711;SDS011;9485;49.386;8.674;2022-11-20T20:21:16;1.80;;;1.70;;
18711;SDS011;9485;49.386;8.674;2022-11-20T20:26:38;1.50;;;1.37;;
18711;SDS011;9485;49.386;8.674;2022-11-20T20:31:59;1.67;;;1.57;;
18711;SDS011;9485;49.386;8.674;2022-11-20T20:37:20;2.27;;;2.07;;
18711;SDS011;9485;49.386;8.674;2022-11-20T20:42:41;2.00;;;1.63;;
18711;SDS011;9485;49.386;8.674;2022-11-20T20:48:01;1.73;;;1.63;;
18711;SDS011;9485;49.386;8.674;2022-11-20T20:53:24;1.70;;;1.60;;
18711;SDS011;9485;49.386;8.674;2022-11-20T20:58:46;1.80;;;1.70;;
18711;SDS011;9485;49.386;8.674;2022-11-20T21:04:06;2.23;;;1.53;;
18711;SDS011;9485;49.386;8.674;2022-11-20T21:09:28;2.30;;;1.53;;
18711;SDS011;9485;49.386;8.674;2022-11-20T21:14:51;1.97;;;1.60;;
18711;SDS011;9485;49.386;8.674;2022-11-20T21:20:11;1.90;;;1.70;;
18711;SDS011;9485;49.386;8.674;2022-11-20T21:25:52;1.83;;;1.57;;
18711;SDS011;9485;49.386;8.674;2022-11-20T21:31:16;3.47;;;2.13;;
18711;SDS011;9485;49.386;8.674;2022-11-20T21:36:39;4.40;;;2.77;;
18711;SDS011;9485;49.386;8.674;2022-11-20T21:42:00;5.80;;;4.13;;
18711;SDS011;9485;49.386;8.674;2022-11-20T21:47:23;5.00;;;3.20;;
18711;SDS011;9485;49.386;8.674;2022-11-20T21:52:43;5.77;;;3.43;;
18711;SDS011;9485;49.386;8.674;2022-11-20T21:58:04;14.73;;;8.13;;
18711;SDS011;9485;49.386;8.674;2022-11-20T22:03:25;4.80;;;3.00;;
18711;SDS011;9485;49.386;8.674;2022-11-20T22:08:46;2.53;;;2.10;;
18711;SDS011;9485;49.386;8.674;2022-11-20T22:14:08;3.00;;;1.93;;
18711;SDS011;9485;49.386;8.674;2022-11-20T22:19:42;2.97;;;1.63;;
18711;SDS011;9485;49.386;8.674;2022-11-20T22:25:03;1.57;;;1.47;;
18711;SDS011;9485;49.386;8.674;2022-11-20T22:30:24;1.70;;;1.60;;
18711;SDS011;9485;49.386;8.674;2022-11-20T22:35:46;2.77;;;1.60;;
18711;SDS011;9485;49.386;8.674;2022-11-20T22:41:07;1.80;;;1.70;;
18711;SDS011;9485;49.386;8.674;2022-11-20T22:46:30;3.73;;;1.77;;
18711;SDS011;9485;49.386;8.674;2022-11-20T22:51:54;2.60;;;1.60;;
18711;SDS011;9485;49.386;8.674;2022-11-20T22:57:14;1.90;;;1.70;;
18711;SDS011;9485;49.386;8.674;2022-11-20T23:02:35;2.00;;;1.40;;
18711;SDS011;9485;49.386;8.674;2022-11-20T23:07:56;2.20;;;1.30;;
18711;SDS011;9485;49.386;8.674;2022-11-20T23:13:17;1.70;;;1.60;;
18711;SDS011;9485;49.386;8.674;2022-11-20T23:18:37;2.27;;;1.27;;
18711;SDS011;9485;49.386;8.674;2022-11-20T23:24:00;2.20;;;1.37;;
18711;SDS011;9485;49.386;8.674;2022-11-20T23:29:21;1.30;;;1.17;;
18711;SDS011;9485;49.386;8.674;2022-11-20T23:34:41;2.40;;;1.50;;
18711;SDS011;9485;49.386;8.674;2022-11-20T23:40:03;2.50;;;1.40;;
18711;SDS011;9485;49.386;8.674;2022-11-20T23:45:25;2.87;;;1.57;;
18711;SDS011;9485;49.386;8.674;2022-11-20T23:50:46;3.10;;;1.63;;
18711;SDS011;9485;49.386;8.674;2022-11-20T23:56:09;2.60;;;1.57;;
